EGQL TAF 200438Z 2006/2015 08017G27KT 9999 FEW025 SCT045 TEMPO 2006/2015 6000 SHRA SCT017